createdAt,value
2022-08-17T00:00:10.223Z,100706.38
2022-08-17T00:03:17.158Z,100710.16
2022-08-17T00:05:52.315Z,100705.91
2022-08-17T00:08:24.339Z,100699.59
2022-08-17T00:10:53.953Z,100702.34
2022-08-17T00:13:43.060Z,100707.16
2022-08-17T00:16:51.001Z,100699.69
2022-08-17T00:19:26.310Z,100705.56
2022-08-17T00:22:29.766Z,100702.19
2022-08-17T00:24:45.037Z,100709.06
2022-08-17T00:27:12.010Z,100702.28
2022-08-17T00:29:38.972Z,100707.94
2022-08-17T00:33:15.012Z,100707.09
2022-08-17T00:34:53.665Z,100701.63
2022-08-17T00:37:21.046Z,100696.16
2022-08-17T00:39:48.276Z,100699.06
2022-08-17T00:42:18.332Z,100691.59
2022-08-17T00:44:46.441Z,100695.38
2022-08-17T00:47:13.605Z,100687.34
2022-08-17T00:49:40.677Z,100697.06
2022-08-17T00:52:16.716Z,100698.97
2022-08-17T00:54:47.575Z,100700.63
2022-08-17T00:57:31.735Z,100701.03
2022-08-17T01:00:26.930Z,100708.22
2022-08-17T01:03:00.829Z,100706.88
2022-08-17T01:05:32.742Z,100711.03
2022-08-17T01:08:02.667Z,100721.34
2022-08-17T01:10:58.481Z,100718.97
2022-08-17T01:13:30.374Z,100716.63
2022-08-17T01:16:05.263Z,100714.53
2022-08-17T01:18:33.887Z,100721.03
2022-08-17T01:21:09.284Z,100724.16
2022-08-17T01:23:37.204Z,100726.88
2022-08-17T01:26:06.309Z,100737.16
2022-08-17T01:28:53.699Z,100732.94
2022-08-17T01:31:25.435Z,100728.47
2022-08-17T01:33:53.356Z,100719.44
2022-08-17T01:36:21.019Z,100718.78
2022-08-17T01:38:48.552Z,100717.63
2022-08-17T01:41:16.856Z,100718.84
2022-08-17T01:43:51.843Z,100718.19
2022-08-17T01:46:27.472Z,100723.84
2022-08-17T01:48:57.624Z,100734.97
2022-08-17T01:51:32.161Z,100725.06
2022-08-17T01:54:05.300Z,100727.13
2022-08-17T01:56:35.709Z,100731.47
2022-08-17T01:59:03.696Z,100736.09
2022-08-17T02:01:34.617Z,100733.38
2022-08-17T02:04:02.320Z,100729.59
2022-08-17T02:06:53.745Z,100732.31
2022-08-17T02:09:26.329Z,100734.75
2022-08-17T02:12:37.383Z,100730.53
2022-08-17T02:14:47.415Z,100750.69
2022-08-17T02:17:14.469Z,100749.66
2022-08-17T02:19:41.894Z,100751.53
2022-08-17T02:22:09.412Z,100747.94
2022-08-17T02:24:59.901Z,100747.47
2022-08-17T02:27:25.418Z,100731.28
2022-08-17T02:29:52.535Z,100727.50
2022-08-17T02:32:28.032Z,100724.56
2022-08-17T02:34:59.935Z,100731.75
2022-08-17T02:37:30.130Z,100739.09
2022-08-17T02:39:58.751Z,100730.03
2022-08-17T02:42:52.609Z,100726.66
2022-08-17T02:45:24.420Z,100731.06
2022-08-17T02:47:52.875Z,100736.03
2022-08-17T02:50:24.323Z,100747.16
2022-08-17T02:53:01.907Z,100739.34
2022-08-17T02:55:38.362Z,100742.44
2022-08-17T02:58:05.462Z,100734.59
2022-08-17T03:00:41.004Z,100738.19
2022-08-17T03:03:10.867Z,100728.81
2022-08-17T03:05:38.771Z,100723.72
2022-08-17T03:08:12.975Z,100721.84
2022-08-17T03:10:41.646Z,100724.09
2022-08-17T03:13:08.850Z,100727.50
2022-08-17T03:15:36.630Z,100719.47
2022-08-17T03:18:07.935Z,100728.53
2022-08-17T03:20:46.672Z,100734.19
2022-08-17T03:23:13.696Z,100732.50
2022-08-17T03:25:44.168Z,100732.66
2022-08-17T03:28:14.035Z,100732.84
2022-08-17T03:30:42.718Z,100739.16
2022-08-17T03:33:10.292Z,100741.22
2022-08-17T03:35:40.683Z,100734.25
2022-08-17T03:38:11.874Z,100727.91
2022-08-17T03:40:58.957Z,100730.84
2022-08-17T03:43:32.747Z,100727.44
2022-08-17T03:46:28.865Z,100728.50
2022-08-17T03:49:26.530Z,100728.00
2022-08-17T03:52:15.428Z,100722.06
2022-08-17T03:55:10.264Z,100725.84
2022-08-17T03:57:37.593Z,100725.31
2022-08-17T04:00:05.573Z,100719.00
2022-08-17T04:02:39.084Z,100727.41
2022-08-17T04:05:06.504Z,100723.03
2022-08-17T04:07:33.543Z,100724.91
2022-08-17T04:10:00.931Z,100722.75
2022-08-17T04:12:31.335Z,100721.91
2022-08-17T04:14:59.415Z,100722.75
2022-08-17T04:17:29.305Z,100731.78
2022-08-17T04:19:57.767Z,100741.19
2022-08-17T04:22:32.917Z,100744.94
2022-08-17T04:25:06.682Z,100744.25
2022-08-17T04:27:34.434Z,100749.56
2022-08-17T04:30:02.832Z,100764.22
2022-08-17T04:33:03.493Z,100767.13
2022-08-17T04:35:24.665Z,100781.81
2022-08-17T04:37:52.662Z,100780.09
2022-08-17T04:40:40.691Z,100790.19
2022-08-17T04:43:16.462Z,100806.75
2022-08-17T04:45:55.544Z,100803.16
2022-08-17T04:48:37.573Z,100796.84
2022-08-17T04:51:14.587Z,100803.34
2022-08-17T04:53:53.954Z,100809.84
2022-08-17T04:56:25.912Z,100814.44
2022-08-17T04:58:58.496Z,100821.59
2022-08-17T05:01:28.508Z,100826.22
2022-08-17T05:03:59.174Z,100826.00
2022-08-17T05:06:28.440Z,100830.97
2022-08-17T05:08:57.686Z,100830.59
2022-08-17T05:11:27.178Z,100843.03
2022-08-17T05:13:56.799Z,100844.75
2022-08-17T05:16:26.186Z,100855.31
2022-08-17T05:18:53.647Z,100855.97
2022-08-17T05:21:23.028Z,100855.66
2022-08-17T05:23:55.002Z,100849.19
2022-08-17T05:26:26.941Z,100849.66
2022-08-17T05:29:00.367Z,100854.94
2022-08-17T05:31:30.841Z,100849.31
2022-08-17T05:33:58.246Z,100852.69
2022-08-17T05:36:43.543Z,100856.28
2022-08-17T05:39:16.867Z,100851.31
2022-08-17T05:41:48.591Z,100854.72
2022-08-17T05:44:17.289Z,100863.59
2022-08-17T05:46:50.100Z,100875.16
2022-08-17T05:49:27.554Z,100873.31
2022-08-17T05:52:03.688Z,100878.38
2022-08-17T05:55:01.705Z,100873.59
2022-08-17T05:57:47.562Z,100876.19
2022-08-17T06:00:30.606Z,100892.19
2022-08-17T06:03:40.358Z,100882.97
2022-08-17T06:06:38.209Z,100879.88
2022-08-17T06:09:51.542Z,100873.03
2022-08-17T06:12:37.474Z,100879.81
2022-08-17T06:15:24.772Z,100882.19
2022-08-17T06:18:02.181Z,100882.88
2022-08-17T06:20:40.913Z,100894.09
2022-08-17T06:23:18.296Z,100887.25
2022-08-17T06:25:52.881Z,100892.19
2022-08-17T06:28:30.556Z,100896.25
2022-08-17T06:31:06.915Z,100890.63
2022-08-17T06:33:38.109Z,100887.53
2022-08-17T06:36:29.277Z,100875.22
2022-08-17T06:39:39.735Z,100869.38
2022-08-17T06:43:02.928Z,100871.56
2022-08-17T06:45:20.560Z,100868.28
2022-08-17T06:47:56.498Z,100863.09
2022-08-17T06:50:54.955Z,100869.03
2022-08-17T06:53:31.948Z,100858.41
2022-08-17T06:56:06.490Z,100857.69
2022-08-17T06:58:36.688Z,100860.91
2022-08-17T07:01:23.172Z,100857.59
2022-08-17T07:04:11.969Z,100849.88
2022-08-17T07:06:58.409Z,100858.38
2022-08-17T07:09:36.507Z,100848.94
2022-08-17T07:12:22.142Z,100836.41
2022-08-17T07:14:57.783Z,100835.88
2022-08-17T07:17:48.009Z,100827.09
2022-08-17T07:20:21.379Z,100827.38
2022-08-17T07:22:59.871Z,100824.94
2022-08-17T07:25:30.482Z,100830.69
2022-08-17T07:28:02.598Z,100833.88
2022-08-17T07:30:47.509Z,100827.50
2022-08-17T07:33:30.147Z,100823.31
2022-08-17T07:35:58.220Z,100816.41
2022-08-17T07:38:35.546Z,100810.19
2022-08-17T07:41:08.878Z,100807.53
2022-08-17T07:43:42.052Z,100822.34
2022-08-17T07:46:51.996Z,100835.78
2022-08-17T07:49:31.155Z,100835.56
2022-08-17T07:52:48.211Z,100825.53
2022-08-17T07:54:50.919Z,100839.50
2022-08-17T07:57:25.411Z,100850.31
2022-08-17T08:00:02.200Z,100867.84
2022-08-17T08:02:45.273Z,100863.66
2022-08-17T08:05:48.845Z,100848.72
2022-08-17T08:08:43.230Z,100866.28
2022-08-17T08:11:15.767Z,100864.84
2022-08-17T08:13:45.783Z,100873.38
2022-08-17T08:16:24.719Z,100863.91
2022-08-17T08:19:02.107Z,100881.66
2022-08-17T08:21:52.134Z,100896.41
2022-08-17T08:24:30.116Z,100891.78
2022-08-17T08:27:29.807Z,100898.09
2022-08-17T08:30:22.511Z,100896.88
2022-08-17T08:33:20.192Z,100899.41
2022-08-17T08:36:14.304Z,100892.69
2022-08-17T08:39:09.934Z,100886.84
2022-08-17T08:42:09.740Z,100892.19
2022-08-17T08:45:07.551Z,100893.78
2022-08-17T08:48:46.172Z,100874.00
2022-08-17T08:51:08.576Z,100888.75
2022-08-17T08:54:09.252Z,100885.44
2022-08-17T08:57:19.789Z,100869.41
2022-08-17T09:00:15.717Z,100864.78
2022-08-17T09:03:36.727Z,100856.16
2022-08-17T09:06:33.246Z,100861.66
2022-08-17T09:09:27.942Z,100862.50
2022-08-17T09:12:14.015Z,100863.78
2022-08-17T09:14:57.689Z,100873.50
2022-08-17T09:18:59.791Z,100871.22
2022-08-17T09:21:14.863Z,100859.41
2022-08-17T09:24:04.933Z,100863.44
2022-08-17T09:26:49.311Z,100874.69
2022-08-17T09:29:18.243Z,100878.09
2022-08-17T09:31:58.687Z,100881.06
2022-08-17T09:34:43.645Z,100885.31
2022-08-17T09:38:02.136Z,100886.44
2022-08-17T09:40:43.730Z,100899.56
2022-08-17T09:43:27.273Z,100904.44
2022-08-17T09:46:16.721Z,100910.41
2022-08-17T09:49:15.201Z,100904.50
2022-08-17T09:51:49.449Z,100904.09
2022-08-17T09:54:39.206Z,100900.75
2022-08-17T09:57:39.849Z,100882.19
2022-08-17T10:00:27.488Z,100869.91
2022-08-17T10:03:10.334Z,100874.59
2022-08-17T10:05:56.894Z,100859.22
2022-08-17T10:08:52.355Z,100854.41
2022-08-17T10:11:52.846Z,100855.31
2022-08-17T10:15:08.230Z,100860.63
2022-08-17T10:18:13.856Z,100857.09
2022-08-17T10:21:26.172Z,100874.00
2022-08-17T10:24:26.708Z,100868.94
2022-08-17T10:26:58.164Z,100874.88
2022-08-17T10:29:48.614Z,100881.47
2022-08-17T10:32:26.036Z,100882.13
2022-08-17T10:35:03.882Z,100881.25
2022-08-17T10:37:55.555Z,100870.00
2022-08-17T10:40:36.447Z,100874.69
2022-08-17T10:43:23.220Z,100876.38
2022-08-17T10:46:31.132Z,100885.47
2022-08-17T10:49:17.116Z,100879.81
2022-08-17T10:51:54.537Z,100876.69
2022-08-17T10:54:24.379Z,100885.13
2022-08-17T10:56:57.293Z,100888.13
2022-08-17T10:59:36.292Z,100894.28
2022-08-17T11:02:13.178Z,100894.53
2022-08-17T11:04:55.619Z,100891.59
2022-08-17T11:07:43.942Z,100896.66
2022-08-17T11:10:42.938Z,100891.78
2022-08-17T11:13:39.975Z,100891.34
2022-08-17T11:16:33.185Z,100881.84
2022-08-17T11:19:12.267Z,100884.19
2022-08-17T11:22:24.451Z,100877.63
2022-08-17T11:24:54.139Z,100870.03
2022-08-17T11:27:32.112Z,100871.72
2022-08-17T11:30:07.335Z,100866.88
2022-08-17T11:32:54.396Z,100871.53
2022-08-17T11:35:21.847Z,100852.28
2022-08-17T11:38:16.915Z,100852.91
2022-08-17T11:41:27.481Z,100852.47
2022-08-17T11:44:37.830Z,100845.53
2022-08-17T11:47:39.399Z,100834.72
2022-08-17T11:50:56.770Z,100833.66
2022-08-17T11:53:39.288Z,100813.78
2022-08-17T11:56:44.024Z,100822.22
2022-08-17T11:59:36.642Z,100817.38
2022-08-17T12:02:19.997Z,100820.13
2022-08-17T12:05:04.958Z,100820.53
2022-08-17T12:08:05.715Z,100822.00
2022-08-17T12:10:39.878Z,100825.16
2022-08-17T12:13:14.928Z,100830.66
2022-08-17T12:15:49.741Z,100833.59
2022-08-17T12:18:28.164Z,100830.63
2022-08-17T12:21:26.395Z,100841.25
2022-08-17T12:24:31.462Z,100836.38
2022-08-17T12:27:02.569Z,100839.13
2022-08-17T12:29:35.718Z,100843.16
2022-08-17T12:32:14.501Z,100841.88
2022-08-17T12:34:44.578Z,100842.09
2022-08-17T12:37:26.255Z,100848.66
2022-08-17T12:40:22.809Z,100851.19
2022-08-17T12:42:59.121Z,100848.84
2022-08-17T12:45:31.913Z,100845.22
2022-08-17T12:48:13.246Z,100856.88
2022-08-17T12:50:45.813Z,100856.25
2022-08-17T12:53:21.011Z,100858.38
2022-08-17T12:55:50.748Z,100864.72
2022-08-17T12:58:29.664Z,100859.03
2022-08-17T13:01:09.229Z,100862.81
2022-08-17T13:03:41.949Z,100870.06
2022-08-17T13:06:14.367Z,100861.38
2022-08-17T13:08:48.298Z,100865.59
2022-08-17T13:11:16.579Z,100862.25
2022-08-17T13:13:54.811Z,100871.75
2022-08-17T13:16:25.485Z,100865.59
2022-08-17T13:19:15.114Z,100854.81
2022-08-17T13:21:56.249Z,100855.22
2022-08-17T13:24:38.143Z,100839.13
2022-08-17T13:27:12.591Z,100840.41
2022-08-17T13:29:53.645Z,100843.16
2022-08-17T13:32:33.487Z,100840.41
2022-08-17T13:35:13.811Z,100826.00
2022-08-17T13:37:59.020Z,100812.03
2022-08-17T13:40:49.994Z,100809.91
2022-08-17T13:43:45.296Z,100813.91
2022-08-17T13:46:22.848Z,100821.75
2022-08-17T13:49:04.217Z,100807.56
2022-08-17T13:51:36.673Z,100817.28
2022-08-17T13:54:07.122Z,100825.75
2022-08-17T13:56:51.662Z,100828.75
2022-08-17T13:59:53.572Z,100838.47
2022-08-17T14:02:21.819Z,100844.66
2022-08-17T14:04:49.310Z,100840.22
2022-08-17T14:07:18.187Z,100836.81
2022-08-17T14:09:59.534Z,100826.22
2022-08-17T14:12:29.917Z,100807.59
2022-08-17T14:14:58.942Z,100784.09
2022-08-17T14:17:28.979Z,100779.22
2022-08-17T14:19:56.362Z,100771.19
2022-08-17T14:22:30.703Z,100766.75
2022-08-17T14:25:01.645Z,100769.72
2022-08-17T14:27:33.489Z,100779.44
2022-08-17T14:30:10.405Z,100785.81
2022-08-17T14:32:41.557Z,100775.63
2022-08-17T14:35:15.991Z,100759.34
2022-08-17T14:37:45.666Z,100753.00
2022-08-17T14:40:17.243Z,100746.00
2022-08-17T14:42:45.920Z,100736.28
2022-08-17T14:45:30.270Z,100732.69
2022-08-17T14:48:05.712Z,100739.84
2022-08-17T14:50:35.359Z,100737.94
2022-08-17T14:53:06.049Z,100737.75
2022-08-17T14:55:33.724Z,100735.19
2022-08-17T14:58:00.814Z,100734.16
2022-08-17T15:00:28.620Z,100743.44
2022-08-17T15:02:58.854Z,100749.19
2022-08-17T15:05:34.000Z,100753.84
2022-08-17T15:08:03.268Z,100755.78
2022-08-17T15:10:31.391Z,100760.81
2022-08-17T15:12:59.371Z,100778.66
2022-08-17T15:15:27.184Z,100795.59
2022-08-17T15:17:55.089Z,100808.69
2022-08-17T15:20:28.011Z,100815.47
2022-08-17T15:22:57.457Z,100815.06
2022-08-17T15:25:31.898Z,100816.31
2022-08-17T15:28:00.532Z,100820.34
2022-08-17T15:30:28.097Z,100831.53
2022-08-17T15:33:00.668Z,100838.94
2022-08-17T15:35:32.305Z,100831.97
2022-08-17T15:38:09.895Z,100841.28
2022-08-17T15:40:45.451Z,100837.03
2022-08-17T15:43:17.297Z,100837.47
2022-08-17T15:45:59.793Z,100830.69
2022-08-17T15:48:41.426Z,100844.66
2022-08-17T15:51:26.153Z,100845.06
2022-08-17T15:54:18.846Z,100834.28
2022-08-17T15:56:49.444Z,100830.69
2022-08-17T15:59:16.395Z,100851.63
2022-08-17T16:03:13.738Z,100862.44
2022-08-17T16:04:31.802Z,100875.56
2022-08-17T16:07:00.238Z,100877.66
2022-08-17T16:09:28.084Z,100893.72
2022-08-17T16:11:56.070Z,100904.13
2022-08-17T16:14:33.520Z,100906.22
2022-08-17T16:17:04.430Z,100903.88
2022-08-17T16:19:33.469Z,100899.63
2022-08-17T16:22:00.852Z,100902.16
2022-08-17T16:24:28.068Z,100898.34
2022-08-17T16:26:55.550Z,100884.78
2022-08-17T16:29:23.611Z,100877.53
2022-08-17T16:31:51.270Z,100877.13
2022-08-17T16:34:19.054Z,100866.94
2022-08-17T16:36:54.675Z,100849.78
2022-08-17T16:39:29.253Z,100836.66
2022-08-17T16:41:57.615Z,100826.88
2022-08-17T16:44:33.160Z,100811.22
2022-08-17T16:47:01.347Z,100786.47
2022-08-17T16:49:36.832Z,100778.84
2022-08-17T16:52:10.100Z,100763.81
2022-08-17T16:54:52.450Z,100747.09
2022-08-17T16:57:37.113Z,100725.75
2022-08-17T17:00:29.028Z,100702.31
2022-08-17T17:02:56.597Z,100666.38
2022-08-17T17:06:09.378Z,100610.38
2022-08-17T17:08:49.387Z,100564.16
2022-08-17T17:11:27.859Z,100551.88
2022-08-17T17:14:02.250Z,100559.69
2022-08-17T17:16:32.084Z,100568.56
2022-08-17T17:19:34.211Z,100564.31
2022-08-17T17:22:15.272Z,100568.72
2022-08-17T17:25:11.545Z,100575.03
2022-08-17T17:27:47.582Z,100561.69
2022-08-17T17:30:37.036Z,100558.53
2022-08-17T17:33:10.460Z,100562.34
2022-08-17T17:35:43.753Z,100584.44
2022-08-17T17:38:23.674Z,100593.56
2022-08-17T17:41:04.529Z,100601.53
2022-08-17T17:43:39.606Z,100600.25
2022-08-17T17:46:29.117Z,100596.00
2022-08-17T17:48:58.334Z,100606.13
2022-08-17T17:52:10.834Z,100623.63
2022-08-17T17:55:05.304Z,100630.13
2022-08-17T17:58:09.361Z,100626.75
2022-08-17T18:00:42.166Z,100630.09
2022-08-17T18:03:40.165Z,100638.25
2022-08-17T18:07:13.265Z,100643.97
2022-08-17T18:09:51.590Z,100644.81
2022-08-17T18:12:38.343Z,100646.72
2022-08-17T18:15:25.785Z,100644.56
2022-08-17T18:18:16.004Z,100634.16
2022-08-17T18:20:55.843Z,100643.84
2022-08-17T18:23:27.976Z,100650.75
2022-08-17T18:25:58.574Z,100667.19
2022-08-17T18:28:34.590Z,100668.66
2022-08-17T18:31:21.940Z,100676.22
2022-08-17T18:33:54.303Z,100697.91
2022-08-17T18:36:36.398Z,100690.25
2022-08-17T18:39:27.882Z,100697.19
2022-08-17T18:41:58.741Z,100710.88
2022-08-17T18:44:42.532Z,100728.81
2022-08-17T18:47:20.160Z,100734.03
2022-08-17T18:49:57.994Z,100733.84
2022-08-17T18:52:31.174Z,100730.28
2022-08-17T18:55:13.800Z,100730.00
2022-08-17T18:57:56.221Z,100734.81
2022-08-17T19:00:40.468Z,100736.53
2022-08-17T19:03:16.605Z,100732.69
2022-08-17T19:05:54.538Z,100737.03
2022-08-17T19:08:35.117Z,100741.03
2022-08-17T19:11:28.254Z,100742.25
2022-08-17T19:14:04.983Z,100745.38
2022-08-17T19:17:01.069Z,100742.84
2022-08-17T19:19:54.626Z,100739.59
2022-08-17T19:22:43.772Z,100753.22
2022-08-17T19:25:23.119Z,100755.72
2022-08-17T19:28:21.844Z,100755.88
2022-08-17T19:30:56.217Z,100771.84
2022-08-17T19:33:24.230Z,100782.13
2022-08-17T19:36:07.705Z,100784.25
2022-08-17T19:39:22.625Z,100795.19
2022-08-17T19:42:13.557Z,100804.50
2022-08-17T19:44:56.383Z,100802.06
2022-08-17T19:47:58.586Z,100807.34
2022-08-17T19:50:42.519Z,100802.06
2022-08-17T19:54:04.765Z,100808.13
2022-08-17T19:56:55.813Z,100818.19
2022-08-17T19:59:59.201Z,100816.34
2022-08-17T20:02:42.475Z,100812.53
2022-08-17T20:06:11.052Z,100819.06
2022-08-17T20:08:49.155Z,100822.19
2022-08-17T20:11:34.008Z,100830.09
2022-08-17T20:14:13.489Z,100836.81
2022-08-17T20:16:40.619Z,100835.31
2022-08-17T20:19:38.837Z,100835.69
2022-08-17T20:22:28.352Z,100843.03
2022-08-17T20:25:11.548Z,100861.19
2022-08-17T20:28:05.624Z,100851.94
2022-08-17T20:30:42.613Z,100851.25
2022-08-17T20:33:32.858Z,100855.25
2022-08-17T20:36:11.346Z,100852.69
2022-08-17T20:38:42.038Z,100855.41
2022-08-17T20:41:24.667Z,100861.94
2022-08-17T20:43:58.709Z,100862.78
2022-08-17T20:46:28.513Z,100865.34
2022-08-17T20:49:18.498Z,100868.72
2022-08-17T20:52:09.772Z,100859.66
2022-08-17T20:54:57.380Z,100867.88
2022-08-17T20:57:33.568Z,100889.56
2022-08-17T21:00:33.812Z,100878.63
2022-08-17T21:03:22.526Z,100870.41
2022-08-17T21:06:00.217Z,100867.50
2022-08-17T21:08:35.805Z,100880.13
2022-08-17T21:12:03.876Z,100880.13
2022-08-17T21:14:58.712Z,100873.81
2022-08-17T21:17:43.839Z,100880.50
2022-08-17T21:20:52.322Z,100885.53
2022-08-17T21:23:38.268Z,100875.31
2022-08-17T21:26:30.731Z,100882.69
2022-08-17T21:29:31.779Z,100877.78
2022-08-17T21:31:59.568Z,100882.59
2022-08-17T21:34:33.006Z,100883.16
2022-08-17T21:37:23.639Z,100877.00
2022-08-17T21:40:19.310Z,100869.84
2022-08-17T21:42:53.902Z,100885.81
2022-08-17T21:45:32.500Z,100885.97
2022-08-17T21:48:16.185Z,100889.25
2022-08-17T21:50:57.563Z,100890.47
2022-08-17T21:53:37.426Z,100891.66
2022-08-17T21:56:06.448Z,100888.28
2022-08-17T21:58:39.983Z,100866.78
2022-08-17T22:01:39.756Z,100872.63
2022-08-17T22:04:11.516Z,100876.38
2022-08-17T22:06:52.716Z,100861.19
2022-08-17T22:09:48.649Z,100873.53
2022-08-17T22:12:24.286Z,100870.31
2022-08-17T22:15:04.676Z,100871.72
2022-08-17T22:17:41.246Z,100866.97
2022-08-17T22:20:16.333Z,100872.19
2022-08-17T22:23:08.340Z,100862.81
2022-08-17T22:25:40.948Z,100866.97
2022-08-17T22:28:11.977Z,100855.72
2022-08-17T22:30:44.133Z,100852.50
2022-08-17T22:33:33.338Z,100866.03
2022-08-17T22:36:42.111Z,100865.53
2022-08-17T22:39:09.009Z,100848.81
2022-08-17T22:41:52.552Z,100848.16
2022-08-17T22:44:19.561Z,100852.59
2022-08-17T22:47:11.340Z,100852.59
2022-08-17T22:49:53.931Z,100839.97
2022-08-17T22:53:00.624Z,100836.00
2022-08-17T22:55:52.466Z,100828.84
2022-08-17T22:58:42.648Z,100818.09
2022-08-17T23:01:26.324Z,100819.97
2022-08-17T23:03:58.079Z,100807.53
2022-08-17T23:06:25.437Z,100801.56
2022-08-17T23:08:54.962Z,100795.97
2022-08-17T23:11:36.646Z,100793.44
2022-08-17T23:14:15.841Z,100784.41
2022-08-17T23:16:43.262Z,100777.91
2022-08-17T23:19:17.717Z,100760.81
2022-08-17T23:21:46.008Z,100755.75
2022-08-17T23:24:23.837Z,100755.25
2022-08-17T23:26:52.586Z,100760.69
2022-08-17T23:29:21.771Z,100769.78
2022-08-17T23:31:51.383Z,100776.94
2022-08-17T23:34:19.733Z,100788.91
2022-08-17T23:36:52.452Z,100780.88
2022-08-17T23:39:24.664Z,100777.44
2022-08-17T23:42:01.297Z,100773.16
2022-08-17T23:44:29.143Z,100769.66
2022-08-17T23:46:57.851Z,100771.03
2022-08-17T23:49:25.664Z,100774.13
2022-08-17T23:51:56.858Z,100770.19
2022-08-17T23:54:41.692Z,100772.06
2022-08-17T23:57:11.841Z,100767.94
2022-08-17T23:59:41.012Z,100768.13
